Time;durP1;ratioP1;P1;durP2;ratioP2;P2;SDS_P1;SDS_P2;PMS_P1;PMS_P2;Temp;Humidity;BMP_temperature;BMP_pressure;BME280_temperature;BME280_humidity;BME280_pressure;Samples;Min_cycle;Max_cycle;Signal;HPM_P1;HPM_P2
2021/07/07 00:02:15;;;;;;;5.63;5.13;;;17.00;99.90;;;;;;5070773;28;20103;-74
2021/07/07 00:04:41;;;;;;;9.60;4.43;;;17.20;99.90;;;;;;5074566;28;20056;-73
2021/07/07 00:07:07;;;;;;;5.88;4.40;;;17.10;99.90;;;;;;5074982;28;20029;-74
2021/07/07 00:09:32;;;;;;;5.68;5.20;;;17.10;99.90;;;;;;5074206;28;20021;-74
2021/07/07 00:18:42;;;;;;;7.57;3.78;;;17.20;99.90;;;;;;5074265;28;20021;-74
2021/07/07 00:21:08;;;;;;;4.70;3.70;;;17.00;99.90;;;;;;5073956;28;20036;-74
2021/07/07 00:23:34;;;;;;;5.65;3.30;;;17.00;99.90;;;;;;5056222;28;20024;-74
2021/07/07 00:26:00;;;;;;;6.43;3.50;;;16.90;99.90;;;;;;5074557;28;20028;-74
2021/07/07 00:28:26;;;;;;;6.97;3.45;;;16.90;99.90;;;;;;5074403;28;20028;-73
2021/07/07 00:30:53;;;;;;;3.33;3.03;;;16.80;99.90;;;;;;5055849;28;20031;-73
2021/07/07 00:33:19;;;;;;;5.75;3.80;;;16.80;99.90;;;;;;5074256;28;20028;-74
2021/07/07 00:35:45;;;;;;;5.32;3.13;;;17.00;99.90;;;;;;5074310;28;20032;-73
2021/07/07 00:38:13;;;;;;;3.45;3.15;;;17.10;99.90;;;;;;5074308;28;20107;-74
2021/07/07 00:40:42;;;;;;;5.95;3.75;;;17.10;99.90;;;;;;5073994;28;20036;-73
2021/07/07 00:43:08;;;;;;;9.80;4.40;;;17.10;99.90;;;;;;5074247;28;20153;-74
2021/07/07 00:45:34;;;;;;;5.50;3.85;;;17.20;99.90;;;;;;5074268;28;20024;-73
2021/07/07 00:47:59;;;;;;;7.82;3.65;;;17.20;99.90;;;;;;5074173;28;20016;-74
2021/07/07 00:50:25;;;;;;;8.45;4.32;;;17.30;99.90;;;;;;5055296;28;20021;-74
2021/07/07 00:52:51;;;;;;;4.70;3.95;;;17.40;99.90;;;;;;5055546;28;20024;-74
2021/07/07 00:55:17;;;;;;;4.32;3.92;;;17.40;99.90;;;;;;5074019;28;20437;-73
2021/07/07 00:57:44;;;;;;;4.50;3.78;;;17.40;99.90;;;;;;5055874;28;20489;-74
2021/07/07 01:00:16;;;;;;;6.85;4.05;;;17.30;99.90;;;;;;5055316;28;20396;-73
2021/07/07 01:02:44;;;;;;;11.40;4.55;;;17.30;99.90;;;;;;5073782;28;20412;-74
2021/07/07 01:05:13;;;;;;;6.03;3.92;;;17.40;99.90;;;;;;5073830;28;20024;-73
2021/07/07 01:07:38;;;;;;;3.42;3.13;;;17.30;99.90;;;;;;5054849;28;20031;-73
2021/07/07 01:10:06;;;;;;;4.40;3.40;;;17.10;99.90;;;;;;5072661;28;20021;-73
2021/07/07 01:12:32;;;;;;;4.35;3.40;;;17.20;99.90;;;;;;5073615;28;20394;-73
2021/07/07 01:15:03;;;;;;;10.10;3.60;;;17.20;99.90;;;;;;5055107;28;20039;-73
2021/07/07 01:17:32;;;;;;;6.55;4.00;;;17.20;99.90;;;;;;5073557;28;20031;-73
2021/07/07 01:19:59;;;;;;;7.30;3.78;;;17.30;99.90;;;;;;5072651;28;20024;-73
2021/07/07 01:22:29;;;;;;;5.78;3.60;;;17.30;99.90;;;;;;5073425;28;20402;-74
2021/07/07 01:24:54;;;;;;;5.35;4.20;;;17.30;99.90;;;;;;5073365;28;20025;-73
2021/07/07 01:27:20;;;;;;;6.40;3.55;;;17.20;99.90;;;;;;5073366;28;20066;-73
2021/07/07 01:29:46;;;;;;;4.78;4.38;;;17.20;99.90;;;;;;5072589;28;20021;-73
2021/07/07 01:32:12;;;;;;;4.30;3.80;;;17.20;99.90;;;;;;5073122;28;20028;-73
2021/07/07 01:34:38;;;;;;;4.90;4.40;;;17.20;99.90;;;;;;5073113;28;20044;-73
2021/07/07 01:37:04;;;;;;;6.70;4.72;;;17.10;99.90;;;;;;5073264;28;20028;-73
2021/07/07 01:39:30;;;;;;;8.00;4.15;;;17.10;99.90;;;;;;5072103;28;20037;-73
2021/07/07 01:41:55;;;;;;;4.32;3.92;;;17.20;99.90;;;;;;5073037;28;20028;-73
2021/07/07 01:44:21;;;;;;;3.88;3.30;;;17.30;99.90;;;;;;5072895;28;20060;-73
2021/07/07 01:46:46;;;;;;;5.07;3.90;;;17.30;99.90;;;;;;5073003;28;20024;-73
2021/07/07 01:49:12;;;;;;;5.10;4.38;;;17.30;99.90;;;;;;5073020;28;20429;-73
2021/07/07 01:51:38;;;;;;;4.28;3.97;;;17.30;99.90;;;;;;5072282;28;20016;-74
2021/07/07 01:54:04;;;;;;;5.43;3.25;;;17.30;99.90;;;;;;5072468;28;20040;-73
2021/07/07 01:56:30;;;;;;;8.38;3.55;;;17.10;99.90;;;;;;5054760;28;20028;-73
2021/07/07 01:58:56;;;;;;;4.55;3.70;;;17.10;99.90;;;;;;5072738;28;20027;-73
2021/07/07 02:01:21;;;;;;;3.80;3.50;;;17.10;99.90;;;;;;5071967;28;20020;-73
2021/07/07 02:03:47;;;;;;;5.75;4.57;;;17.10;99.90;;;;;;5072382;28;20091;-73
2021/07/07 02:06:13;;;;;;;4.70;3.60;;;17.20;99.90;;;;;;5072673;28;20024;-73
2021/07/07 02:08:39;;;;;;;7.68;5.22;;;17.20;99.90;;;;;;5072232;28;20028;-73
2021/07/07 02:11:05;;;;;;;6.78;4.05;;;17.30;99.90;;;;;;5072111;28;20435;-73
2021/07/07 02:13:30;;;;;;;8.10;5.10;;;17.20;99.90;;;;;;5072456;28;20153;-73
2021/07/07 02:15:56;;;;;;;8.38;5.72;;;17.30;99.90;;;;;;5072382;28;20466;-73
2021/07/07 02:18:22;;;;;;;5.55;4.63;;;17.40;99.90;;;;;;5072078;28;20123;-73
2021/07/07 02:20:47;;;;;;;6.97;4.47;;;17.40;99.90;;;;;;5071535;28;20039;-74
2021/07/07 02:23:14;;;;;;;6.00;4.68;;;17.20;99.90;;;;;;5053865;28;20020;-73
2021/07/07 02:25:45;;;;;;;4.53;3.97;;;17.00;99.90;;;;;;5072240;28;20367;-73
2021/07/07 02:28:13;;;;;;;3.55;3.25;;;16.80;99.90;;;;;;5053307;28;20023;-73
2021/07/07 02:30:39;;;;;;;7.55;4.00;;;16.80;99.90;;;;;;5053459;28;20115;-74
2021/07/07 02:33:08;;;;;;;9.52;4.35;;;16.90;99.90;;;;;;5072346;28;20025;-73
2021/07/07 02:35:37;;;;;;;5.00;4.57;;;16.90;99.90;;;;;;5072378;28;20128;-73
2021/07/07 02:38:06;;;;;;;7.55;5.97;;;17.10;99.90;;;;;;5071868;28;20025;-74
2021/07/07 02:40:33;;;;;;;12.88;5.80;;;17.30;99.90;;;;;;5071398;28;20021;-74
2021/07/07 02:42:59;;;;;;;9.32;5.75;;;17.30;99.90;;;;;;5071984;28;20027;-74
2021/07/07 02:45:27;;;;;;;6.15;5.32;;;17.30;99.90;;;;;;5071903;28;20017;-73
2021/07/07 02:47:53;;;;;;;6.25;5.07;;;17.10;99.90;;;;;;5071994;28;20044;-73
2021/07/07 02:50:20;;;;;;;5.57;4.53;;;17.10;99.90;;;;;;5053089;28;20036;-73
2021/07/07 02:52:48;;;;;;;4.25;3.95;;;17.00;99.90;;;;;;5071123;28;20071;-73
2021/07/07 02:55:16;;;;;;;11.90;4.47;;;17.00;99.90;;;;;;5051691;28;20020;-73
2021/07/07 02:57:58;;;;;;;5.65;4.13;;;16.90;99.90;;;;;;5071213;28;20026;-73
2021/07/07 03:00:29;;;;;;;4.72;3.90;;;17.00;99.90;;;;;;5070646;28;20017;-74
2021/07/07 03:03:00;;;;;;;6.90;5.68;;;17.10;99.90;;;;;;5071609;28;20470;-73
2021/07/07 03:05:27;;;;;;;6.85;4.78;;;17.00;99.90;;;;;;5071448;28;20047;-73
2021/07/07 03:07:53;;;;;;;7.88;5.28;;;17.00;99.90;;;;;;5072352;28;20448;-74
2021/07/07 03:10:18;;;;;;;9.18;6.28;;;17.20;99.90;;;;;;5053164;28;20028;-74
2021/07/07 03:12:44;;;;;;;10.02;7.05;;;17.30;99.90;;;;;;5071317;28;20021;-74
2021/07/07 03:15:10;;;;;;;8.90;5.75;;;17.30;99.90;;;;;;5071154;28;20386;-74
2021/07/07 03:17:36;;;;;;;6.25;5.30;;;17.30;99.90;;;;;;5071489;28;20031;-73
2021/07/07 03:20:03;;;;;;;6.43;4.50;;;17.00;99.90;;;;;;5070690;28;20021;-73
2021/07/07 03:22:29;;;;;;;9.48;5.35;;;16.90;99.90;;;;;;5053160;28;20059;-73
2021/07/07 03:24:54;;;;;;;4.47;4.18;;;16.90;99.90;;;;;;5070933;28;20055;-73
2021/07/07 03:27:20;;;;;;;4.60;3.97;;;16.80;99.90;;;;;;5053199;28;20352;-74
2021/07/07 03:29:45;;;;;;;4.50;4.10;;;16.90;99.90;;;;;;5070534;28;20020;-73
2021/07/07 03:32:12;;;;;;;4.93;4.50;;;16.80;99.90;;;;;;5053372;28;20052;-74
2021/07/07 03:34:38;;;;;;;5.90;4.60;;;17.00;99.90;;;;;;5071187;28;20020;-73
2021/07/07 03:37:04;;;;;;;11.30;4.75;;;16.90;99.90;;;;;;5071013;28;20029;-73
2021/07/07 03:39:29;;;;;;;4.35;3.95;;;17.00;99.90;;;;;;5073368;28;20096;-73
2021/07/07 03:41:55;;;;;;;5.68;3.53;;;17.10;99.90;;;;;;5075207;28;20059;-74
2021/07/07 03:44:21;;;;;;;3.70;3.25;;;17.10;99.90;;;;;;5075280;28;20025;-73
2021/07/07 03:46:46;;;;;;;3.25;2.65;;;17.00;99.90;;;;;;5075274;28;20070;-73
2021/07/07 03:49:12;;;;;;;4.25;2.83;;;17.10;99.90;;;;;;5056912;28;20078;-73
2021/07/07 03:51:37;;;;;;;6.53;2.25;;;17.20;99.90;;;;;;5074490;28;20028;-73
2021/07/07 03:54:03;;;;;;;4.22;2.72;;;17.00;99.90;;;;;;5075039;28;20410;-74
2021/07/07 03:56:29;;;;;;;4.93;3.05;;;17.00;99.90;;;;;;5075149;28;20043;-73
2021/07/07 03:58:54;;;;;;;3.33;3.13;;;17.20;99.90;;;;;;5074846;28;20028;-74
2021/07/07 04:01:20;;;;;;;4.72;3.10;;;17.10;99.90;;;;;;5074223;28;20419;-73
2021/07/07 04:03:46;;;;;;;3.47;2.50;;;16.90;99.90;;;;;;5074725;28;20041;-74
2021/07/07 04:06:11;;;;;;;7.20;3.13;;;16.80;99.90;;;;;;5057043;28;20025;-73
2021/07/07 04:08:38;;;;;;;3.03;2.83;;;16.90;99.90;;;;;;5064385;28;20909;-74
2021/07/07 04:11:04;;;;;;;3.08;2.47;;;16.90;99.90;;;;;;5072687;28;20030;-73
2021/07/07 04:13:30;;;;;;;3.88;2.47;;;16.90;99.90;;;;;;5074162;28;20028;-73
2021/07/07 04:15:56;;;;;;;2.67;2.53;;;16.90;99.90;;;;;;5074326;28;20070;-73
2021/07/07 04:18:22;;;;;;;5.25;2.95;;;17.00;99.90;;;;;;5074386;28;20028;-73
2021/07/07 04:20:48;;;;;;;3.53;2.63;;;16.90;99.90;;;;;;5073451;28;20110;-75
2021/07/07 04:23:14;;;;;;;4.53;2.65;;;16.90;99.90;;;;;;5074030;28;20021;-75
2021/07/07 04:25:41;;;;;;;4.20;3.20;;;17.00;99.90;;;;;;5074329;28;20530;-76
2021/07/07 04:28:07;;;;;;;7.95;3.45;;;17.10;99.90;;;;;;5068848;28;20039;-76
2021/07/07 04:30:34;;;;;;;4.60;2.50;;;17.10;99.90;;;;;;5071554;28;20021;-76
2021/07/07 04:33:00;;;;;;;2.20;1.95;;;17.10;99.90;;;;;;5073822;28;20079;-74
2021/07/07 04:35:25;;;;;;;5.57;2.22;;;17.10;99.90;;;;;;5073996;28;20020;-74
2021/07/07 04:37:51;;;;;;;3.83;2.17;;;17.00;99.90;;;;;;5056114;28;20055;-74
2021/07/07 04:40:19;;;;;;;3.75;2.03;;;16.80;99.90;;;;;;5073039;28;20050;-75
2021/07/07 04:42:45;;;;;;;2.85;1.85;;;16.80;99.90;;;;;;5074581;28;20024;-75
2021/07/07 04:45:12;;;;;;;7.03;3.05;;;16.70;99.90;;;;;;5074603;28;20083;-73
2021/07/07 04:47:39;;;;;;;3.15;2.33;;;16.80;99.90;;;;;;5074081;28;20392;-72
2021/07/07 04:50:13;;;;;;;5.00;2.10;;;17.00;99.90;;;;;;5071529;28;20051;-72
2021/07/07 04:52:40;;;;;;;4.57;1.92;;;17.00;99.90;;;;;;5073601;28;20036;-72
2021/07/07 04:55:08;;;;;;;6.97;2.05;;;17.10;99.90;;;;;;5055489;28;20028;-72
2021/07/07 04:57:43;;;;;;;2.40;2.25;;;17.10;99.90;;;;;;5055520;28;20028;-72
2021/07/07 05:00:19;;;;;;;7.50;2.55;;;17.00;99.90;;;;;;5072435;28;20483;-73
2021/07/07 05:02:47;;;;;;;5.60;3.67;;;17.10;99.90;;;;;;5073131;28;20071;-73
2021/07/07 05:05:14;;;;;;;5.60;3.03;;;17.10;99.90;;;;;;5053846;28;20111;-73
2021/07/07 05:07:40;;;;;;;7.47;2.40;;;17.10;99.90;;;;;;5061695;28;20111;-75
2021/07/07 05:10:08;;;;;;;4.43;2.00;;;17.10;99.90;;;;;;5072486;28;20039;-75
2021/07/07 05:12:34;;;;;;;3.53;1.92;;;16.90;99.90;;;;;;5073904;28;20034;-75
2021/07/07 05:15:01;;;;;;;3.85;1.77;;;17.00;99.90;;;;;;5073870;28;20083;-75
2021/07/07 05:17:27;;;;;;;2.90;1.73;;;17.00;99.90;;;;;;5073267;28;20040;-74
2021/07/07 05:19:53;;;;;;;3.35;2.08;;;17.20;99.90;;;;;;5072671;28;20094;-75
2021/07/07 05:22:19;;;;;;;4.63;2.20;;;17.30;99.90;;;;;;5072737;28;20051;-74
2021/07/07 05:24:45;;;;;;;8.32;2.03;;;17.30;99.90;;;;;;5073052;28;20052;-72
2021/07/07 05:27:12;;;;;;;3.08;1.40;;;17.30;99.90;;;;;;5055433;28;20457;-74
2021/07/07 05:29:38;;;;;;;3.92;1.50;;;17.10;99.90;;;;;;5072303;28;20063;-71
2021/07/07 05:32:04;;;;;;;4.05;1.42;;;16.90;99.90;;;;;;5072484;28;20367;-74
2021/07/07 05:34:30;;;;;;;3.25;1.67;;;16.80;99.90;;;;;;5073138;28;20463;-70
2021/07/07 05:36:56;;;;;;;11.63;2.10;;;16.70;99.90;;;;;;5072945;28;20060;-69
2021/07/07 05:39:22;;;;;;;9.95;2.05;;;16.80;99.90;;;;;;5071789;28;20390;-73
2021/07/07 05:41:48;;;;;;;6.13;1.90;;;17.00;99.90;;;;;;5072399;28;20039;-70
2021/07/07 05:44:13;;;;;;;2.95;1.88;;;17.00;99.90;;;;;;5054705;28;20534;-73
2021/07/07 05:46:39;;;;;;;5.20;2.45;;;16.80;99.90;;;;;;5072624;28;20394;-73
2021/07/07 05:49:04;;;;;;;6.03;2.10;;;16.70;99.90;;;;;;5072630;28;20047;-71
2021/07/07 05:51:30;;;;;;;4.55;2.10;;;16.90;99.90;;;;;;5071592;28;20085;-72
2021/07/07 05:53:56;;;;;;;5.47;1.98;;;16.90;99.90;;;;;;5072049;28;20426;-71
2021/07/07 05:56:22;;;;;;;2.65;1.90;;;16.80;99.90;;;;;;5072653;28;20024;-71
2021/07/07 05:58:47;;;;;;;8.48;1.95;;;16.80;99.90;;;;;;5070073;28;20653;-71
2021/07/07 06:01:14;;;;;;;5.32;2.00;;;16.70;99.90;;;;;;5069869;28;20024;-72
2021/07/07 06:03:40;;;;;;;3.95;2.25;;;16.40;99.90;;;;;;5068104;28;20032;-70
2021/07/07 06:06:06;;;;;;;6.28;2.17;;;16.20;99.90;;;;;;5052297;28;20091;-71
2021/07/07 06:08:32;;;;;;;7.50;2.33;;;16.40;99.90;;;;;;5057100;28;20107;-71
2021/07/07 06:10:58;;;;;;;3.35;2.45;;;16.50;99.90;;;;;;5065806;28;20104;-71
2021/07/07 06:13:23;;;;;;;6.30;2.67;;;16.40;99.90;;;;;;5072238;28;20029;-71
2021/07/07 06:15:49;;;;;;;4.07;2.60;;;16.50;99.90;;;;;;5072091;28;20065;-72
2021/07/07 06:18:15;;;;;;;7.13;2.53;;;16.60;99.90;;;;;;5071760;28;20032;-71
2021/07/07 06:20:41;;;;;;;5.40;2.60;;;16.50;99.90;;;;;;5071538;28;20033;-73
2021/07/07 06:23:07;;;;;;;4.55;1.65;;;16.40;99.90;;;;;;5072554;28;20028;-71
2021/07/07 06:25:33;;;;;;;4.63;2.10;;;16.20;99.90;;;;;;5054065;28;20071;-72
2021/07/07 06:28:00;;;;;;;3.38;2.30;;;16.00;99.90;;;;;;5069394;28;20016;-71
2021/07/07 06:30:27;;;;;;;4.65;2.33;;;16.10;99.90;;;;;;5050203;28;20021;-72
2021/07/07 06:32:54;;;;;;;5.65;2.20;;;16.30;99.90;;;;;;5063740;28;20012;-72
2021/07/07 06:35:21;;;;;;;4.72;2.00;;;16.50;99.90;;;;;;5071912;28;20108;-71
2021/07/07 06:37:49;;;;;;;5.35;1.75;;;16.80;99.90;;;;;;5072056;28;20032;-72
2021/07/07 06:40:18;;;;;;;4.25;2.10;;;17.10;99.90;;;;;;5070834;28;20023;-72
2021/07/07 06:42:45;;;;;;;5.72;1.60;;;17.30;99.90;;;;;;5053312;28;20445;-73
2021/07/07 06:45:12;;;;;;;3.00;1.50;;;17.20;99.90;;;;;;5062251;28;20363;-71
2021/07/07 06:47:38;;;;;;;6.68;1.33;;;17.00;99.90;;;;;;5071294;28;20029;-72
2021/07/07 06:50:06;;;;;;;2.03;1.30;;;16.70;99.90;;;;;;5053241;28;20028;-72
2021/07/07 06:52:32;;;;;;;3.60;1.98;;;16.70;99.90;;;;;;5071311;28;20044;-71
2021/07/07 06:54:57;;;;;;;3.88;2.10;;;16.80;99.90;;;;;;5071871;28;20032;-72
2021/07/07 06:57:23;;;;;;;4.63;2.08;;;17.10;99.90;;;;;;5072945;28;20480;-71
2021/07/07 06:59:49;;;;;;;7.93;1.92;;;17.30;99.90;;;;;;5072084;28;20025;-72
2021/07/07 07:02:14;;;;;;;4.75;1.52;;;17.20;99.90;;;;;;5069742;28;20675;-73
2021/07/07 07:04:40;;;;;;;2.22;1.42;;;17.00;99.90;;;;;;5034196;28;20497;-72
2021/07/07 07:07:06;;;;;;;3.95;1.63;;;16.80;99.90;;;;;;5054960;28;20437;-72
2021/07/07 07:09:31;;;;;;;3.80;1.92;;;16.90;99.90;;;;;;5073496;28;20056;-74
2021/07/07 07:11:57;;;;;;;2.17;1.60;;;16.80;99.90;;;;;;5073927;28;20102;-72
2021/07/07 07:14:23;;;;;;;7.35;1.80;;;16.70;99.90;;;;;;5071529;28;20575;-71
2021/07/07 07:16:49;;;;;;;14.80;2.53;;;16.70;99.90;;;;;;5054048;28;20024;-72
2021/07/07 07:19:15;;;;;;;7.10;2.20;;;16.80;99.90;;;;;;5071082;28;20074;-73
2021/07/07 07:21:41;;;;;;;1.95;1.70;;;16.90;99.90;;;;;;5070392;28;20409;-71
2021/07/07 07:24:07;;;;;;;13.85;2.88;;;16.90;99.90;;;;;;5070834;28;20036;-72
2021/07/07 07:26:33;;;;;;;4.05;1.70;;;17.20;99.90;;;;;;5071048;28;20028;-72
2021/07/07 07:29:00;;;;;;;4.78;2.05;;;17.40;99.90;;;;;;5070865;28;20052;-73
2021/07/07 07:31:26;;;;;;;4.85;1.70;;;17.50;99.90;;;;;;5070504;28;20029;-72
2021/07/07 07:33:52;;;;;;;3.22;1.55;;;17.70;99.90;;;;;;5071046;28;20092;-72
2021/07/07 07:36:19;;;;;;;4.90;1.90;;;17.80;99.90;;;;;;5071058;28;20052;-72
2021/07/07 07:38:48;;;;;;;5.00;1.48;;;17.90;99.90;;;;;;5052917;28;20021;-71
2021/07/07 07:41:14;;;;;;;3.17;1.60;;;18.00;99.90;;;;;;5069880;28;20017;-71
2021/07/07 07:43:42;;;;;;;3.13;1.52;;;18.10;99.90;;;;;;5071062;28;20028;-73
2021/07/07 07:46:08;;;;;;;3.17;1.70;;;18.10;99.90;;;;;;5058161;28;20036;-72
2021/07/07 07:48:34;;;;;;;4.63;1.50;;;18.20;99.90;;;;;;5032734;28;20604;-74
2021/07/07 07:51:01;;;;;;;6.68;1.98;;;18.00;99.90;;;;;;5032425;28;20031;-73
2021/07/07 07:53:27;;;;;;;5.63;1.95;;;17.80;99.90;;;;;;5050245;28;20036;-72
2021/07/07 07:55:54;;;;;;;4.93;2.08;;;17.90;99.90;;;;;;5051282;28;20029;-74
2021/07/07 07:58:19;;;;;;;2.10;1.63;;;17.90;99.90;;;;;;5033397;28;20047;-74
2021/07/07 08:00:47;;;;;;;3.30;1.80;;;17.80;99.90;;;;;;5050264;28;20463;-74
2021/07/07 08:03:13;;;;;;;6.45;2.10;;;17.50;99.90;;;;;;5050538;28;20044;-71
2021/07/07 08:05:40;;;;;;;7.43;2.88;;;17.10;99.90;;;;;;5050826;28;20468;-71
2021/07/07 08:08:18;;;;;;;7.68;3.05;;;16.90;99.90;;;;;;5062198;28;20103;-72
2021/07/07 08:10:44;;;;;;;5.25;2.63;;;16.90;99.90;;;;;;5070079;28;20112;-70
2021/07/07 08:13:09;;;;;;;8.48;3.03;;;16.90;99.90;;;;;;5070643;28;20105;-71
2021/07/07 08:15:35;;;;;;;4.22;2.55;;;16.80;99.90;;;;;;5053026;28;20128;-71
2021/07/07 08:18:01;;;;;;;7.53;2.22;;;16.80;99.90;;;;;;5070729;28;20466;-71
2021/07/07 08:20:27;;;;;;;5.65;2.47;;;16.80;99.90;;;;;;5070016;28;20108;-72
2021/07/07 08:22:53;;;;;;;4.20;2.35;;;16.90;99.90;;;;;;5052610;28;20025;-73
2021/07/07 08:25:19;;;;;;;5.65;2.90;;;17.20;99.90;;;;;;5073107;28;20024;-70
2021/07/07 08:27:46;;;;;;;2.45;2.03;;;17.60;99.90;;;;;;5074703;28;20024;-72
2021/07/07 08:30:13;;;;;;;3.20;1.30;;;17.70;99.90;;;;;;5073621;28;20400;-73
2021/07/07 08:32:39;;;;;;;2.17;1.48;;;17.70;99.90;;;;;;5074034;28;20033;-73
2021/07/07 08:35:06;;;;;;;3.58;2.28;;;17.60;99.90;;;;;;5074603;28;20402;-74
2021/07/07 08:37:32;;;;;;;6.75;2.95;;;17.70;99.90;;;;;;5073931;28;20651;-73
2021/07/07 08:39:58;;;;;;;4.32;1.63;;;18.00;99.90;;;;;;5073185;28;20032;-73
2021/07/07 08:42:24;;;;;;;2.88;1.58;;;18.00;99.90;;;;;;5073915;28;20024;-72
2021/07/07 08:44:49;;;;;;;3.63;2.10;;;18.10;99.90;;;;;;5074589;28;20026;-73
2021/07/07 08:47:15;;;;;;;4.35;2.40;;;18.10;99.90;;;;;;5074515;28;20055;-72
2021/07/07 08:49:41;;;;;;;2.22;2.03;;;18.40;99.90;;;;;;5073517;28;20462;-72
2021/07/07 08:52:07;;;;;;;1.80;1.63;;;19.00;99.90;;;;;;5055566;28;20024;-73
2021/07/07 08:54:33;;;;;;;4.25;1.58;;;19.20;99.90;;;;;;5073853;28;20042;-72
2021/07/07 08:57:09;;;;;;;3.28;1.50;;;19.30;99.90;;;;;;5074195;28;20391;-72
2021/07/07 08:59:35;;;;;;;1.35;1.20;;;18.90;99.90;;;;;;5062745;28;20761;-73
2021/07/07 09:02:10;;;;;;;2.20;1.40;;;19.20;99.90;;;;;;5051421;28;20021;-72
2021/07/07 09:04:37;;;;;;;4.38;1.30;;;18.70;99.90;;;;;;5053571;28;20109;-72
2021/07/07 09:07:15;;;;;;;2.63;1.27;;;19.00;99.90;;;;;;5055957;28;20435;-71
2021/07/07 09:09:44;;;;;;;3.33;1.30;;;19.40;99.90;;;;;;5070810;28;20017;-72
2021/07/07 09:12:24;;;;;;;2.15;1.30;;;19.40;99.90;;;;;;5053483;28;20095;-71
2021/07/07 09:15:04;;;;;;;3.58;1.27;;;19.50;99.90;;;;;;5053708;28;20051;-72
2021/07/07 09:17:48;;;;;;;2.25;1.40;;;19.50;99.90;;;;;;5053760;28;20086;-72
2021/07/07 09:20:16;;;;;;;1.67;1.10;;;19.40;99.90;;;;;;5052719;28;20096;-71
2021/07/07 09:22:42;;;;;;;0.98;0.98;;;19.30;99.90;;;;;;5035373;28;20431;-71
2021/07/07 09:25:08;;;;;;;0.70;0.70;;;19.10;99.90;;;;;;5052999;28;20029;-71
2021/07/07 09:27:38;;;;;;;1.15;0.90;;;19.10;99.90;;;;;;5051512;28;20142;-72
2021/07/07 09:30:12;;;;;;;1.30;1.20;;;19.10;99.90;;;;;;5072597;28;20020;-72
2021/07/07 09:32:49;;;;;;;1.65;1.30;;;19.30;99.90;;;;;;5073488;28;20024;-72
2021/07/07 09:35:20;;;;;;;2.45;1.08;;;19.20;99.90;;;;;;5073078;28;20025;-71
2021/07/07 09:37:49;;;;;;;1.35;1.10;;;18.80;99.90;;;;;;5054929;28;20028;-72
2021/07/07 09:40:16;;;;;;;1.77;1.20;;;18.40;99.90;;;;;;5072642;28;20028;-72
2021/07/07 09:42:45;;;;;;;1.42;1.02;;;18.50;99.90;;;;;;5072958;28;20100;-73
2021/07/07 09:45:14;;;;;;;1.40;1.20;;;18.30;99.90;;;;;;5073056;28;20555;-72
2021/07/07 09:47:40;;;;;;;2.20;1.27;;;18.50;99.90;;;;;;5073316;28;20134;-72
2021/07/07 09:50:08;;;;;;;1.77;1.27;;;18.60;99.90;;;;;;5072364;28;20502;-72
2021/07/07 09:52:34;;;;;;;2.65;1.23;;;18.60;99.90;;;;;;5072567;28;20065;-72
2021/07/07 09:55:02;;;;;;;1.98;1.00;;;18.70;99.90;;;;;;5055004;28;20532;-75
2021/07/07 09:57:28;;;;;;;1.52;1.23;;;18.90;99.90;;;;;;5073848;28;20032;-73
2021/07/07 09:59:54;;;;;;;2.80;1.00;;;19.00;99.90;;;;;;5072806;28;20099;-74
2021/07/07 10:02:19;;;;;;;1.15;1.00;;;19.20;99.90;;;;;;5072674;28;20449;-73
2021/07/07 10:04:45;;;;;;;1.10;1.00;;;19.70;99.90;;;;;;5073013;28;20078;-73
2021/07/07 10:07:12;;;;;;;3.22;1.23;;;19.60;99.90;;;;;;5054701;28;20056;-73
2021/07/07 10:09:43;;;;;;;3.75;1.27;;;19.40;99.90;;;;;;5071553;28;20680;-73
2021/07/07 10:12:09;;;;;;;2.13;1.02;;;19.20;99.90;;;;;;5072550;28;20059;-74
2021/07/07 10:14:35;;;;;;;1.35;0.98;;;19.00;99.90;;;;;;5072345;28;20063;-74
2021/07/07 10:17:01;;;;;;;1.92;1.30;;;18.90;99.90;;;;;;5054473;28;20020;-73
2021/07/07 10:19:28;;;;;;;1.60;0.82;;;18.70;99.90;;;;;;5053265;28;20024;-70
2021/07/07 10:21:58;;;;;;;2.92;1.00;;;18.50;99.90;;;;;;5072105;28;20115;-75
2021/07/07 10:24:27;;;;;;;0.70;0.70;;;18.90;99.90;;;;;;5072841;28;20029;-74
2021/07/07 10:26:59;;;;;;;1.80;0.90;;;19.20;99.90;;;;;;5072313;28;20471;-73
2021/07/07 10:29:26;;;;;;;0.80;0.80;;;19.30;99.90;;;;;;5053966;28;20025;-73
2021/07/07 10:31:55;;;;;;;1.85;0.90;;;19.80;99.90;;;;;;5072676;28;20074;-73
2021/07/07 10:34:23;;;;;;;1.88;0.88;;;19.40;99.90;;;;;;5072038;28;20024;-72
2021/07/07 10:36:49;;;;;;;2.90;0.98;;;18.80;99.90;;;;;;5072031;28;20070;-71
2021/07/07 10:39:16;;;;;;;1.25;1.00;;;19.20;99.90;;;;;;5071671;28;20032;-71
2021/07/07 10:41:42;;;;;;;1.25;1.00;;;19.70;99.90;;;;;;5070838;28;20031;-72
2021/07/07 10:44:28;;;;;;;3.75;0.95;;;20.00;99.90;;;;;;5070769;28;20021;-72
2021/07/07 10:47:04;;;;;;;1.00;0.82;;;19.70;99.90;;;;;;5054207;28;20478;-72
2021/07/07 10:49:39;;;;;;;1.48;0.90;;;19.30;99.90;;;;;;5070635;28;20055;-74
2021/07/07 10:52:08;;;;;;;1.42;1.00;;;19.50;99.90;;;;;;5071954;28;20052;-74
2021/07/07 10:54:36;;;;;;;4.57;0.85;;;20.20;99.90;;;;;;5053976;28;20038;-73
2021/07/07 10:57:05;;;;;;;3.50;1.15;;;20.30;99.90;;;;;;5054184;28;20070;-73
2021/07/07 10:59:37;;;;;;;1.00;0.90;;;20.20;99.90;;;;;;5071416;28;20082;-73
2021/07/07 11:02:15;;;;;;;1.95;0.90;;;19.90;99.90;;;;;;5068244;28;20021;-74
2021/07/07 11:04:42;;;;;;;3.70;1.17;;;19.90;99.90;;;;;;5060695;28;20036;-73
2021/07/07 11:07:32;;;;;;;1.23;1.02;;;19.50;99.90;;;;;;5060338;28;20016;-75
2021/07/07 11:10:14;;;;;;;3.22;1.00;;;19.30;99.90;;;;;;5058248;28;20028;-71
2021/07/07 11:12:40;;;;;;;1.40;1.10;;;19.40;99.90;;;;;;5060016;28;20021;-74
2021/07/07 11:15:18;;;;;;;2.63;1.02;;;19.60;99.90;;;;;;5062654;28;20025;-74
2021/07/07 11:17:45;;;;;;;0.90;0.90;;;19.80;99.90;;;;;;5060229;28;20567;-74
2021/07/07 11:20:29;;;;;;;2.35;1.38;;;19.70;99.90;;;;;;5070674;28;20033;-75
2021/07/07 11:23:00;;;;;;;2.78;1.10;;;19.50;99.90;;;;;;5071004;28;20098;-73
2021/07/07 11:25:27;;;;;;;3.50;1.10;;;19.60;99.90;;;;;;5053497;28;20024;-75
2021/07/07 11:27:54;;;;;;;1.40;1.02;;;19.90;99.90;;;;;;5073269;28;20028;-74
2021/07/07 11:30:21;;;;;;;3.35;1.10;;;20.00;99.90;;;;;;5070137;28;20044;-75
2021/07/07 11:32:54;;;;;;;2.50;1.00;;;20.20;99.90;;;;;;5053111;28;20048;-73
2021/07/07 11:35:34;;;;;;;1.38;0.85;;;20.60;99.90;;;;;;5073352;28;20390;-73
2021/07/07 11:38:11;;;;;;;2.40;0.95;;;20.70;99.90;;;;;;5047025;28;20497;-75
2021/07/07 11:40:42;;;;;;;1.42;0.90;;;20.60;99.90;;;;;;5063006;28;20036;-74
2021/07/07 11:43:14;;;;;;;0.98;0.85;;;20.80;99.90;;;;;;5060409;28;20021;-75
2021/07/07 11:45:44;;;;;;;4.65;1.77;;;20.90;99.90;;;;;;5041228;28;20387;-74
2021/07/07 11:48:40;;;;;;;1.42;1.15;;;21.00;99.90;;;;;;5059811;28;20040;-73
2021/07/07 11:51:07;;;;;;;1.55;1.10;;;21.10;99.90;;;;;;5060086;28;20458;-73
2021/07/07 11:53:37;;;;;;;2.83;1.30;;;21.00;99.90;;;;;;5059434;28;20044;-71
2021/07/07 11:56:12;;;;;;;1.30;1.10;;;20.80;99.90;;;;;;5059765;28;20025;-72
2021/07/07 11:58:54;;;;;;;1.20;1.05;;;20.90;99.90;;;;;;5059195;28;20020;-72
2021/07/07 12:01:21;;;;;;;1.88;1.38;;;21.30;99.90;;;;;;5062810;28;20013;-72
2021/07/07 12:04:12;;;;;;;2.20;1.20;;;21.60;99.90;;;;;;5062219;28;20108;-73
2021/07/07 12:06:43;;;;;;;3.05;1.00;;;21.10;99.90;;;;;;5063834;28;20025;-73
2021/07/07 12:09:20;;;;;;;3.25;1.30;;;21.00;99.90;;;;;;5064252;28;20135;-73
2021/07/07 12:12:00;;;;;;;2.50;0.70;;;21.00;99.90;;;;;;5041822;28;20033;-74
2021/07/07 12:14:29;;;;;;;5.07;1.10;;;20.70;99.90;;;;;;5055711;28;20037;-74
2021/07/07 12:16:56;;;;;;;2.58;1.50;;;20.70;99.90;;;;;;5055395;28;20482;-74
2021/07/07 12:19:22;;;;;;;9.18;2.60;;;20.80;99.90;;;;;;5055216;28;20078;-78
2021/07/07 12:21:59;;;;;;;1.88;1.73;;;20.80;99.90;;;;;;5037832;28;20032;-75
2021/07/07 12:24:26;;;;;;;3.80;3.28;;;21.00;99.90;;;;;;5038179;28;20036;-76
2021/07/07 12:27:19;;;;;;;2.88;1.30;;;21.50;99.90;;;;;;5059193;28;20029;-79
2021/07/07 12:29:51;;;;;;;1.67;1.27;;;22.00;99.90;;;;;;5061533;28;20029;-78
2021/07/07 12:32:22;;;;;;;2.08;0.95;;;22.20;99.90;;;;;;5055227;28;20053;-74
2021/07/07 12:34:53;;;;;;;2.95;0.93;;;22.80;99.90;;;;;;5069581;28;20059;-80
2021/07/07 12:37:18;;;;;;;1.77;0.80;;;23.20;99.90;;;;;;5067039;28;20037;-72
2021/07/07 12:39:56;;;;;;;2.55;1.00;;;23.20;99.90;;;;;;5053806;28;20029;-73
2021/07/07 12:42:41;;;;;;;1.23;0.80;;;22.70;99.90;;;;;;5059718;28;20020;-71
2021/07/07 12:45:12;;;;;;;1.48;0.90;;;22.30;99.90;;;;;;5072681;28;20027;-71
2021/07/07 12:47:39;;;;;;;1.27;0.97;;;21.70;99.90;;;;;;5055588;28;20035;-72
2021/07/07 12:50:25;;;;;;;3.60;1.10;;;21.90;99.90;;;;;;5073515;28;20021;-73
2021/07/07 12:52:51;;;;;;;1.95;1.10;;;21.00;99.90;;;;;;5073485;28;20032;-71
2021/07/07 12:55:25;;;;;;;0.90;0.90;;;21.00;99.90;;;;;;5073792;28;20430;-72
2021/07/07 12:58:04;;;;;;;3.28;1.20;;;21.60;99.90;;;;;;5073768;28;20386;-71